Time;durP1;ratioP1;P1;durP2;ratioP2;P2;SDS_P1;SDS_P2;PMS_P1;PMS_P2;Temp;Humidity;BMP_temperature;BMP_pressure;BME280_temperature;BME280_humidity;BME280_pressure;Samples;Min_cycle;Max_cycle;Signal;HPM_P1;HPM_P2
2023/03/05 00:01:27;;;;;;;10.45;2.40;;;;;;;;;;5003255;28;20127;-77
2023/03/05 00:03:53;;;;;;;10.43;2.05;;;;;;;;;;4978075;28;20538;-76
2023/03/05 00:06:20;;;;;;;7.57;1.90;;;;;;;;;;4994064;28;20038;-76
2023/03/05 00:08:46;;;;;;;7.30;2.50;;;;;;;;;;4996596;28;20026;-76
2023/03/05 00:11:12;;;;;;;12.25;2.15;;;;;;;;;;4979034;28;20035;-77
2023/03/05 00:13:38;;;;;;;10.80;1.95;;;;;;;;;;4987032;28;20745;-77
2023/03/05 00:16:14;;;;;;;10.85;1.80;;;;;;;;;;5009084;28;20081;-77
2023/03/05 00:18:40;;;;;;;9.18;2.15;;;;;;;;;;4978956;28;20715;-76
2023/03/05 00:21:23;;;;;;;9.70;1.92;;;;;;;;;;5002334;28;20038;-77
2023/03/05 00:23:49;;;;;;;12.80;2.60;;;;;;;;;;4992931;28;20034;-77
2023/03/05 00:26:16;;;;;;;9.30;2.05;;;;;;;;;;4991962;28;20398;-77
2023/03/05 00:28:41;;;;;;;7.17;1.57;;;;;;;;;;5002294;28;20073;-77
2023/03/05 00:31:07;;;;;;;12.57;2.85;;;;;;;;;;5009362;28;20844;-77
2023/03/05 00:33:32;;;;;;;14.18;2.13;;;;;;;;;;4986923;28;20041;-77
2023/03/05 00:36:00;;;;;;;11.00;1.92;;;;;;;;;;4986305;28;20034;-77
2023/03/05 00:38:26;;;;;;;13.30;2.25;;;;;;;;;;5007699;28;20042;-77
2023/03/05 00:40:51;;;;;;;10.35;1.70;;;;;;;;;;4985264;28;20044;-77
2023/03/05 00:43:17;;;;;;;12.43;3.00;;;;;;;;;;4985515;28;20089;-76
2023/03/05 00:45:42;;;;;;;15.30;2.63;;;;;;;;;;4985303;28;20038;-77
2023/03/05 00:48:08;;;;;;;10.25;2.10;;;;;;;;;;4985454;28;20409;-76
2023/03/05 00:50:33;;;;;;;8.55;1.90;;;;;;;;;;4985834;28;20042;-76
2023/03/05 00:52:59;;;;;;;8.43;1.83;;;;;;;;;;5001805;28;20551;-77
2023/03/05 00:55:24;;;;;;;5.70;1.73;;;;;;;;;;4990271;28;20030;-79
2023/03/05 00:57:49;;;;;;;6.63;1.33;;;;;;;;;;4994857;28;20678;-77
2023/03/05 01:00:15;;;;;;;10.02;2.60;;;;;;;;;;4996332;28;20093;-77
2023/03/05 01:02:41;;;;;;;7.55;1.75;;;;;;;;;;4994277;28;20042;-77
2023/03/05 01:05:07;;;;;;;11.63;2.10;;;;;;;;;;4992642;28;20034;-77
2023/03/05 01:07:32;;;;;;;11.10;1.67;;;;;;;;;;4991757;28;20634;-77
2023/03/05 01:09:58;;;;;;;6.60;1.30;;;;;;;;;;4996691;28;20048;-77
2023/03/05 01:12:23;;;;;;;7.50;1.60;;;;;;;;;;4993067;28;20109;-76
2023/03/05 01:14:49;;;;;;;7.20;1.10;;;;;;;;;;4996323;28;20042;-76
2023/03/05 01:17:14;;;;;;;11.65;2.28;;;;;;;;;;4985215;28;20470;-76
2023/03/05 01:19:39;;;;;;;5.00;1.23;;;;;;;;;;4975003;28;20038;-76
2023/03/05 01:22:05;;;;;;;5.28;1.38;;;;;;;;;;4978292;28;20050;-77
2023/03/05 01:24:31;;;;;;;6.32;1.30;;;;;;;;;;4993885;28;20065;-76
2023/03/05 01:26:57;;;;;;;7.38;1.10;;;;;;;;;;4995635;28;20117;-76
2023/03/05 01:29:22;;;;;;;7.68;1.60;;;;;;;;;;4980030;28;20736;-76
2023/03/05 01:31:48;;;;;;;5.40;1.08;;;;;;;;;;4979048;28;20044;-76
2023/03/05 01:34:13;;;;;;;3.95;1.08;;;;;;;;;;4992471;28;22114;-77
2023/03/05 01:36:41;;;;;;;5.15;1.10;;;;;;;;;;4985379;28;20132;-77
2023/03/05 01:39:07;;;;;;;6.32;1.70;;;;;;;;;;4984247;28;20411;-77
2023/03/05 01:41:32;;;;;;;5.13;1.10;;;;;;;;;;4992109;28;20034;-77
2023/03/05 01:43:58;;;;;;;5.50;1.27;;;;;;;;;;4983845;28;20136;-77
2023/03/05 01:46:34;;;;;;;8.70;1.33;;;;;;;;;;4978839;28;20045;-77
2023/03/05 01:49:20;;;;;;;8.80;2.15;;;;;;;;;;4984552;28;20553;-77
2023/03/05 01:52:17;;;;;;;4.75;1.38;;;;;;;;;;5006689;28;20041;-76
2023/03/05 01:54:44;;;;;;;7.80;1.67;;;;;;;;;;4975851;28;20046;-76
2023/03/05 01:57:14;;;;;;;5.30;1.00;;;;;;;;;;4974314;28;20671;-77
2023/03/05 01:59:41;;;;;;;6.45;1.10;;;;;;;;;;5000399;28;20442;-77
2023/03/05 02:02:07;;;;;;;6.40;0.95;;;;;;;;;;4984674;28;20247;-77
2023/03/05 02:04:40;;;;;;;7.15;1.05;;;;;;;;;;4985406;28;20035;-77
2023/03/05 02:07:06;;;;;;;8.45;1.35;;;;;;;;;;4974877;28;20077;-78
2023/03/05 02:09:31;;;;;;;5.45;1.20;;;;;;;;;;4992963;28;20525;-76
2023/03/05 02:11:57;;;;;;;7.13;1.13;;;;;;;;;;4975982;28;20085;-77
2023/03/05 02:14:24;;;;;;;5.20;1.20;;;;;;;;;;4992336;28;20409;-76
2023/03/05 02:16:50;;;;;;;6.63;0.93;;;;;;;;;;4990200;28;20038;-76
2023/03/05 02:19:15;;;;;;;5.28;1.10;;;;;;;;;;5000237;28;20902;-76
2023/03/05 02:21:44;;;;;;;8.45;1.25;;;;;;;;;;4999922;28;20045;-77
2023/03/05 02:24:33;;;;;;;5.25;0.82;;;;;;;;;;4994852;28;20508;-77
2023/03/05 02:27:00;;;;;;;4.35;1.00;;;;;;;;;;4998935;28;20037;-76
2023/03/05 02:29:26;;;;;;;5.80;1.40;;;;;;;;;;4991917;28;20910;-77
2023/03/05 02:31:52;;;;;;;5.53;1.17;;;;;;;;;;4990616;28;20490;-76
2023/03/05 02:34:17;;;;;;;5.72;0.93;;;;;;;;;;4984809;28;20103;-76
2023/03/05 02:37:03;;;;;;;5.88;1.10;;;;;;;;;;4983384;28;20088;-76
2023/03/05 02:39:30;;;;;;;3.03;0.70;;;;;;;;;;4949761;28;20475;-75
2023/03/05 02:41:55;;;;;;;3.00;0.75;;;;;;;;;;4925198;28;20043;-76
2023/03/05 02:44:21;;;;;;;5.20;1.45;;;;;;;;;;4936363;28;20609;-76
2023/03/05 02:46:47;;;;;;;5.35;1.00;;;;;;;;;;4927289;28;20050;-76
2023/03/05 02:49:12;;;;;;;4.60;1.00;;;;;;;;;;4928486;28;20039;-76
2023/03/05 02:51:37;;;;;;;4.70;1.17;;;;;;;;;;4926843;28;20043;-76
2023/03/05 02:54:03;;;;;;;3.92;0.70;;;;;;;;;;4952301;28;20146;-76
2023/03/05 02:56:28;;;;;;;5.60;0.95;;;;;;;;;;4943051;28;20112;-77
2023/03/05 02:58:54;;;;;;;8.38;1.10;;;;;;;;;;4923529;28;20082;-76
2023/03/05 03:01:19;;;;;;;5.78;0.98;;;;;;;;;;4922653;28;20645;-76
2023/03/05 03:04:06;;;;;;;4.30;0.98;;;;;;;;;;4941484;28;20061;-77
2023/03/05 03:06:31;;;;;;;5.97;0.90;;;;;;;;;;4925922;28;20050;-76
2023/03/05 03:08:57;;;;;;;5.03;1.10;;;;;;;;;;4925137;28;20071;-76
2023/03/05 03:11:22;;;;;;;7.85;1.40;;;;;;;;;;4943909;28;20039;-76
2023/03/05 03:13:48;;;;;;;3.28;1.10;;;;;;;;;;4935553;28;20048;-76
2023/03/05 03:16:14;;;;;;;7.28;1.10;;;;;;;;;;4926239;28;20042;-76
2023/03/05 03:18:40;;;;;;;3.92;0.80;;;;;;;;;;4934829;28;20042;-76
2023/03/05 03:21:06;;;;;;;3.55;0.90;;;;;;;;;;4938129;28;20452;-76
2023/03/05 03:23:32;;;;;;;7.68;1.10;;;;;;;;;;4951784;28;20082;-76
2023/03/05 03:25:57;;;;;;;6.22;1.15;;;;;;;;;;4936810;28;20047;-77
2023/03/05 03:28:23;;;;;;;4.13;0.80;;;;;;;;;;4943863;28;20097;-75
2023/03/05 03:30:48;;;;;;;5.20;1.00;;;;;;;;;;4951253;28;20039;-76
2023/03/05 03:33:14;;;;;;;4.75;1.00;;;;;;;;;;4946047;28;20050;-76
2023/03/05 03:35:39;;;;;;;3.13;1.05;;;;;;;;;;4937124;28;20376;-76
2023/03/05 03:38:05;;;;;;;3.80;0.82;;;;;;;;;;4968215;28;20487;-76
2023/03/05 03:40:31;;;;;;;6.05;1.00;;;;;;;;;;4943054;28;20383;-77
2023/03/05 03:42:56;;;;;;;5.55;1.08;;;;;;;;;;4944689;28;20039;-77
2023/03/05 03:45:21;;;;;;;6.18;1.10;;;;;;;;;;4938039;28;20118;-76
2023/03/05 03:47:48;;;;;;;2.20;0.80;;;;;;;;;;4947014;28;20027;-76
2023/03/05 03:50:14;;;;;;;4.13;0.90;;;;;;;;;;4947099;28;20034;-76
2023/03/05 03:52:39;;;;;;;2.90;0.70;;;;;;;;;;4964024;28;20373;-76
2023/03/05 03:55:05;;;;;;;4.40;1.00;;;;;;;;;;4939718;28;20165;-77
2023/03/05 03:57:32;;;;;;;3.13;0.90;;;;;;;;;;4954892;28;20039;-77
2023/03/05 03:59:58;;;;;;;6.50;1.10;;;;;;;;;;4937483;28;21286;-77
2023/03/05 04:02:23;;;;;;;3.22;0.70;;;;;;;;;;4948117;28;20377;-76
2023/03/05 04:04:49;;;;;;;6.38;1.17;;;;;;;;;;4956207;28;20039;-76
2023/03/05 04:07:15;;;;;;;8.73;1.10;;;;;;;;;;4969388;28;20474;-76
2023/03/05 04:09:40;;;;;;;7.97;1.08;;;;;;;;;;4966877;28;20490;-76
2023/03/05 04:12:06;;;;;;;2.53;0.73;;;;;;;;;;4974924;28;20034;-77
2023/03/05 04:14:31;;;;;;;2.30;0.90;;;;;;;;;;4961266;28;20495;-76
2023/03/05 04:16:57;;;;;;;4.47;1.05;;;;;;;;;;4965887;28;20109;-77
2023/03/05 04:19:22;;;;;;;7.38;0.98;;;;;;;;;;4974540;28;20046;-76
2023/03/05 04:21:47;;;;;;;4.47;1.10;;;;;;;;;;4972306;28;20045;-76
2023/03/05 04:24:14;;;;;;;7.03;1.15;;;;;;;;;;4990820;28;20035;-75
2023/03/05 04:26:39;;;;;;;5.55;1.10;;;;;;;;;;4963372;28;20538;-76
2023/03/05 04:29:04;;;;;;;6.65;1.33;;;;;;;;;;4976579;28;20034;-75
2023/03/05 04:31:30;;;;;;;5.90;1.10;;;;;;;;;;4957835;28;20035;-75
2023/03/05 04:33:55;;;;;;;5.93;1.05;;;;;;;;;;4973325;28;20062;-76
2023/03/05 04:36:21;;;;;;;4.63;1.20;;;;;;;;;;4959571;28;20123;-76
2023/03/05 04:38:46;;;;;;;4.45;0.75;;;;;;;;;;4957538;28;20065;-76
2023/03/05 04:41:11;;;;;;;4.60;1.00;;;;;;;;;;4970290;28;20490;-76
2023/03/05 04:43:37;;;;;;;5.75;1.00;;;;;;;;;;4955851;28;20030;-75
2023/03/05 04:46:02;;;;;;;7.30;0.90;;;;;;;;;;4962576;28;20078;-76
2023/03/05 04:48:28;;;;;;;4.57;0.90;;;;;;;;;;4973855;28;20757;-76
2023/03/05 04:50:53;;;;;;;5.72;1.15;;;;;;;;;;4958815;28;20041;-76
2023/03/05 04:53:19;;;;;;;6.47;1.02;;;;;;;;;;4989732;28;20465;-75
2023/03/05 04:55:44;;;;;;;4.90;1.05;;;;;;;;;;4955092;28;20455;-76
2023/03/05 04:58:09;;;;;;;4.10;0.95;;;;;;;;;;4958568;28;20126;-76
2023/03/05 05:00:35;;;;;;;4.07;0.82;;;;;;;;;;4962264;28;20514;-76
2023/03/05 05:03:00;;;;;;;7.70;1.05;;;;;;;;;;4958757;28;20073;-76
2023/03/05 05:05:27;;;;;;;3.83;0.85;;;;;;;;;;4962476;28;20066;-76
2023/03/05 05:07:54;;;;;;;3.75;0.93;;;;;;;;;;4958243;28;20054;-76
2023/03/05 05:10:20;;;;;;;6.38;0.90;;;;;;;;;;4968948;28;20054;-76
2023/03/05 05:12:45;;;;;;;3.13;0.65;;;;;;;;;;4958363;28;20047;-76
2023/03/05 05:15:11;;;;;;;9.63;1.20;;;;;;;;;;4980153;28;20043;-76
2023/03/05 05:17:37;;;;;;;6.32;1.02;;;;;;;;;;4957442;28;20269;-76
2023/03/05 05:20:05;;;;;;;6.00;1.35;;;;;;;;;;4973366;28;20442;-77
2023/03/05 05:22:31;;;;;;;6.55;1.00;;;;;;;;;;4957051;28;20045;-76
2023/03/05 05:24:56;;;;;;;3.00;0.80;;;;;;;;;;4973841;28;20035;-77
2023/03/05 05:27:22;;;;;;;6.57;0.80;;;;;;;;;;4965328;28;20030;-76
2023/03/05 05:29:51;;;;;;;5.22;1.08;;;;;;;;;;4975923;28;20089;-76
2023/03/05 05:32:17;;;;;;;6.32;0.93;;;;;;;;;;4971920;28;20496;-76
2023/03/05 05:34:43;;;;;;;5.50;0.80;;;;;;;;;;4973216;28;20046;-76
2023/03/05 05:37:08;;;;;;;3.05;0.90;;;;;;;;;;4964112;28;20049;-77
2023/03/05 05:39:34;;;;;;;7.38;1.40;;;;;;;;;;4959947;28;20034;-77
2023/03/05 05:42:00;;;;;;;6.35;1.02;;;;;;;;;;4966038;28;20505;-76
2023/03/05 05:44:25;;;;;;;4.22;0.88;;;;;;;;;;4988339;28;20058;-77
2023/03/05 05:46:51;;;;;;;3.53;0.65;;;;;;;;;;4973288;28;20043;-76
2023/03/05 05:49:16;;;;;;;5.10;0.95;;;;;;;;;;4954451;28;20030;-76
2023/03/05 05:51:42;;;;;;;4.20;0.95;;;;;;;;;;4971720;28;20043;-75
2023/03/05 05:54:07;;;;;;;7.85;1.35;;;;;;;;;;4959621;28;20049;-76
2023/03/05 05:56:32;;;;;;;4.85;1.02;;;;;;;;;;4952812;28;20151;-76
2023/03/05 05:58:58;;;;;;;2.90;1.00;;;;;;;;;;4965283;28;20046;-77
2023/03/05 06:01:29;;;;;;;4.85;0.80;;;;;;;;;;4960893;28;20037;-76
2023/03/05 06:03:55;;;;;;;5.20;0.98;;;;;;;;;;4955905;28;20081;-78
2023/03/05 06:06:22;;;;;;;4.53;1.10;;;;;;;;;;4974149;28;20398;-79
2023/03/05 06:08:48;;;;;;;6.53;1.20;;;;;;;;;;4975222;28;20037;-79
2023/03/05 06:11:14;;;;;;;8.00;1.05;;;;;;;;;;4970666;28;20441;-79
2023/03/05 06:13:39;;;;;;;3.25;1.00;;;;;;;;;;4974181;28;20042;-79
2023/03/05 06:16:07;;;;;;;3.17;1.00;;;;;;;;;;4972002;28;20536;-79
2023/03/05 06:18:33;;;;;;;4.60;1.13;;;;;;;;;;4972809;28;20031;-79
2023/03/05 06:21:02;;;;;;;3.65;1.00;;;;;;;;;;4958021;28;20027;-79
2023/03/05 06:23:27;;;;;;;2.90;0.98;;;;;;;;;;4958236;28;20030;-79
2023/03/05 06:25:53;;;;;;;5.45;1.10;;;;;;;;;;4971142;28;20035;-76
2023/03/05 06:28:19;;;;;;;6.40;1.00;;;;;;;;;;4977553;28;20034;-77
2023/03/05 06:30:45;;;;;;;4.28;1.20;;;;;;;;;;4975391;28;20042;-77
2023/03/05 06:33:10;;;;;;;6.22;1.00;;;;;;;;;;4957624;28;20069;-76
2023/03/05 06:35:39;;;;;;;6.15;1.10;;;;;;;;;;4972224;28;20050;-76
2023/03/05 06:38:06;;;;;;;3.15;0.90;;;;;;;;;;4974170;28;20035;-77
2023/03/05 06:40:31;;;;;;;2.63;1.00;;;;;;;;;;4957781;28;20030;-76
2023/03/05 06:42:57;;;;;;;6.05;1.30;;;;;;;;;;4962381;28;20410;-77
2023/03/05 06:45:22;;;;;;;3.60;1.15;;;;;;;;;;4963959;28;20088;-76
2023/03/05 06:47:47;;;;;;;3.53;0.75;;;;;;;;;;4968220;28;20030;-77
2023/03/05 06:50:13;;;;;;;5.47;1.02;;;;;;;;;;4972583;28;20427;-76
2023/03/05 06:52:39;;;;;;;2.72;1.10;;;;;;;;;;4986504;28;20030;-76
2023/03/05 06:55:06;;;;;;;4.07;0.90;;;;;;;;;;4972107;28;20189;-77
2023/03/05 06:57:31;;;;;;;3.67;1.13;;;;;;;;;;4955878;28;20039;-76
2023/03/05 06:59:57;;;;;;;4.43;1.13;;;;;;;;;;4960780;28;20375;-77
2023/03/05 07:02:22;;;;;;;3.72;0.95;;;;;;;;;;4971643;28;20510;-77
2023/03/05 07:04:48;;;;;;;9.32;1.67;;;;;;;;;;4971669;28;20031;-76
2023/03/05 07:07:13;;;;;;;5.32;1.48;;;;;;;;;;4964660;28;20038;-77
2023/03/05 07:09:41;;;;;;;2.97;0.88;;;;;;;;;;4954883;28;20121;-76
2023/03/05 07:12:10;;;;;;;3.80;0.60;;;;;;;;;;4974592;28;20042;-77
2023/03/05 07:14:36;;;;;;;2.72;0.65;;;;;;;;;;4976991;28;20138;-77
2023/03/05 07:17:02;;;;;;;5.55;1.05;;;;;;;;;;4963320;28;20035;-76
2023/03/05 07:19:27;;;;;;;4.38;1.42;;;;;;;;;;4967126;28;20039;-77
2023/03/05 07:21:53;;;;;;;3.08;0.90;;;;;;;;;;4959585;28;20030;-76
2023/03/05 07:24:18;;;;;;;4.72;0.75;;;;;;;;;;4992476;28;20114;-77
2023/03/05 07:26:44;;;;;;;7.50;1.02;;;;;;;;;;4962422;28;20065;-76
2023/03/05 07:29:09;;;;;;;3.20;0.90;;;;;;;;;;4975018;28;20274;-77
2023/03/05 07:31:35;;;;;;;4.47;0.85;;;;;;;;;;4967663;28;20542;-76
2023/03/05 07:34:01;;;;;;;8.13;1.10;;;;;;;;;;4964429;28;20056;-77
2023/03/05 07:36:27;;;;;;;2.67;0.90;;;;;;;;;;4960663;28;20109;-75
2023/03/05 07:38:53;;;;;;;3.35;0.90;;;;;;;;;;4958623;28;20040;-77
2023/03/05 07:41:18;;;;;;;5.20;0.90;;;;;;;;;;4988111;28;20035;-77
2023/03/05 07:43:48;;;;;;;5.45;0.98;;;;;;;;;;4968175;28;20075;-77
2023/03/05 07:46:16;;;;;;;2.67;0.75;;;;;;;;;;4956109;28;20038;-77
2023/03/05 07:48:41;;;;;;;;;;;;;;;;;;4968604;28;20106;-77
2023/03/05 07:51:16;;;;;;;4.20;1.10;;;;;;;;;;4983407;28;19922;-76
2023/03/05 07:53:42;;;;;;;4.57;0.98;;;;;;;;;;4977013;28;20070;-76
2023/03/05 07:56:08;;;;;;;3.17;0.60;;;;;;;;;;4956767;28;20046;-77
2023/03/05 07:58:33;;;;;;;6.18;1.00;;;;;;;;;;4967037;28;20031;-77
2023/03/05 08:00:59;;;;;;;4.10;0.75;;;;;;;;;;4958728;28;20502;-76
2023/03/05 08:03:24;;;;;;;5.03;0.85;;;;;;;;;;4967431;28;20475;-76
2023/03/05 08:05:50;;;;;;;4.35;0.90;;;;;;;;;;4991402;28;20053;-77
2023/03/05 08:08:15;;;;;;;5.70;1.10;;;;;;;;;;4975322;28;20042;-77
2023/03/05 08:10:41;;;;;;;4.57;0.82;;;;;;;;;;4975492;28;20044;-76
2023/03/05 08:13:06;;;;;;;5.30;0.88;;;;;;;;;;4964133;28;20130;-76
2023/03/05 08:15:32;;;;;;;5.72;0.80;;;;;;;;;;4979464;28;20126;-77
2023/03/05 08:17:58;;;;;;;5.32;0.80;;;;;;;;;;4978256;28;20043;-77
2023/03/05 08:20:23;;;;;;;5.57;0.77;;;;;;;;;;4966282;28;20045;-77
2023/03/05 08:22:48;;;;;;;1.65;0.60;;;;;;;;;;4977547;28;20065;-77
2023/03/05 08:25:14;;;;;;;5.60;0.82;;;;;;;;;;4975813;28;20117;-77
2023/03/05 08:27:44;;;;;;;4.07;0.68;;;;;;;;;;4960547;28;20035;-76
2023/03/05 08:30:12;;;;;;;3.85;0.60;;;;;;;;;;4949148;28;20110;-76
2023/03/05 08:32:37;;;;;;;5.20;0.75;;;;;;;;;;4957195;28;20034;-76
2023/03/05 08:35:04;;;;;;;4.35;0.93;;;;;;;;;;4979708;28;20459;-77
2023/03/05 08:37:30;;;;;;;5.28;0.70;;;;;;;;;;4946754;28;20157;-77
2023/03/05 08:39:55;;;;;;;3.85;0.60;;;;;;;;;;4954142;28;20034;-79
2023/03/05 08:42:21;;;;;;;5.18;0.80;;;;;;;;;;4965265;28;20058;-76
2023/03/05 08:44:47;;;;;;;3.80;0.60;;;;;;;;;;4966834;28;20038;-77
2023/03/05 08:47:12;;;;;;;3.33;0.82;;;;;;;;;;4971939;28;20114;-76
2023/03/05 08:49:38;;;;;;;4.60;0.90;;;;;;;;;;4982205;28;20042;-77
2023/03/05 08:52:03;;;;;;;2.72;0.63;;;;;;;;;;4966427;28;20382;-77
2023/03/05 08:54:29;;;;;;;1.67;0.47;;;;;;;;;;4978591;28;20038;-77
2023/03/05 08:56:54;;;;;;;3.17;0.75;;;;;;;;;;4962975;28;20038;-76
2023/03/05 08:59:20;;;;;;;3.30;0.77;;;;;;;;;;4955650;28;20038;-81
2023/03/05 09:01:45;;;;;;;3.22;0.80;;;;;;;;;;4960911;28;20062;-82
2023/03/05 09:04:10;;;;;;;2.03;0.60;;;;;;;;;;4955717;28;20031;-82
2023/03/05 09:06:39;;;;;;;4.53;0.80;;;;;;;;;;4977068;28;20046;-82
2023/03/05 09:09:06;;;;;;;1.70;0.63;;;;;;;;;;4987244;28;20066;-75
2023/03/05 09:11:34;;;;;;;2.50;0.82;;;;;;;;;;4946196;28;20416;-76
2023/03/05 09:14:00;;;;;;;4.70;0.70;;;;;;;;;;4941858;28;20490;-76
2023/03/05 09:16:26;;;;;;;4.68;0.80;;;;;;;;;;4946629;28;20038;-77
2023/03/05 09:18:51;;;;;;;3.13;0.70;;;;;;;;;;4959313;28;20054;-75
2023/03/05 09:21:17;;;;;;;1.55;0.30;;;;;;;;;;4944013;28;20039;-75
2023/03/05 09:23:43;;;;;;;3.08;0.80;;;;;;;;;;4972350;28;20511;-76
2023/03/05 09:26:11;;;;;;;5.68;0.80;;;;;;;;;;4946773;28;20311;-76
2023/03/05 09:28:36;;;;;;;7.07;0.82;;;;;;;;;;4970903;28;20154;-75
2023/03/05 09:31:06;;;;;;;7.65;1.10;;;;;;;;;;4954303;28;20109;-76
2023/03/05 09:33:32;;;;;;;3.50;0.90;;;;;;;;;;4962171;28;20048;-76
2023/03/05 09:35:58;;;;;;;6.30;0.82;;;;;;;;;;4939116;28;20084;-76
2023/03/05 09:38:23;;;;;;;2.92;0.55;;;;;;;;;;4973067;28;20051;-76
2023/03/05 09:40:58;;;;;;;1.83;0.60;;;;;;;;;;4954746;28;20039;-76
2023/03/05 09:43:31;;;;;;;3.28;0.93;;;;;;;;;;4987244;28;20113;-77
2023/03/05 09:46:06;;;;;;;2.58;0.85;;;;;;;;;;4958890;28;20049;-77
2023/03/05 09:48:41;;;;;;;4.35;0.80;;;;;;;;;;4967452;28;20038;-76
2023/03/05 09:51:11;;;;;;;4.53;0.65;;;;;;;;;;4968594;28;20062;-76
2023/03/05 09:53:58;;;;;;;3.28;0.70;;;;;;;;;;4969318;28;20046;-76
2023/03/05 09:56:45;;;;;;;3.22;0.80;;;;;;;;;;4985503;28;20035;-76
2023/03/05 09:59:24;;;;;;;4.40;0.95;;;;;;;;;;4950852;28;20039;-76
2023/03/05 10:01:51;;;;;;;3.25;1.00;;;;;;;;;;4963818;28;20042;-77
2023/03/05 10:04:37;;;;;;;2.97;0.70;;;;;;;;;;4959269;28;20030;-77
2023/03/05 10:07:06;;;;;;;3.08;0.60;;;;;;;;;;4963764;28;20045;-77
2023/03/05 10:09:59;;;;;;;6.15;0.90;;;;;;;;;;4968762;28;20046;-77
2023/03/05 10:12:41;;;;;;;3.40;0.85;;;;;;;;;;4984544;28;20050;-76
2023/03/05 10:15:50;;;;;;;3.67;0.90;;;;;;;;;;4983888;28;20503;-75
2023/03/05 10:18:29;;;;;;;3.83;0.90;;;;;;;;;;4960375;28;20035;-75
2023/03/05 10:20:57;;;;;;;3.47;0.70;;;;;;;;;;4939505;28;20047;-75
2023/03/05 10:23:26;;;;;;;4.15;1.02;;;;;;;;;;4955233;28;20043;-79
2023/03/05 10:26:10;;;;;;;2.95;0.70;;;;;;;;;;4951840;28;20039;-81
2023/03/05 10:28:38;;;;;;;3.28;0.68;;;;;;;;;;4968506;28;20674;-79
2023/03/05 10:31:28;;;;;;;3.03;0.90;;;;;;;;;;4965716;28;20131;-80
2023/03/05 10:34:14;;;;;;;1.90;0.68;;;;;;;;;;4950957;28;20047;-79
2023/03/05 10:36:45;;;;;;;5.28;1.05;;;;;;;;;;4967773;28;20135;-79
2023/03/05 10:39:13;;;;;;;2.60;0.60;;;;;;;;;;4968909;28;20372;-80
2023/03/05 10:42:05;;;;;;;2.75;0.70;;;;;;;;;;4955392;28;20622;-80
2023/03/05 10:44:39;;;;;;;4.10;0.70;;;;;;;;;;4953170;28;20089;-80
2023/03/05 10:47:14;;;;;;;2.40;0.68;;;;;;;;;;4966742;28;20047;-80
2023/03/05 10:49:50;;;;;;;4.03;0.90;;;;;;;;;;4973439;28;20031;-79
2023/03/05 10:52:23;;;;;;;2.05;0.70;;;;;;;;;;4981184;28;20041;-80
2023/03/05 10:54:49;;;;;;;2.83;0.77;;;;;;;;;;4958085;28;20045;-80
2023/03/05 10:57:18;;;;;;;3.13;1.10;;;;;;;;;;4953580;28;20070;-80
2023/03/05 10:59:57;;;;;;;3.80;1.10;;;;;;;;;;4972643;28;20036;-79
2023/03/05 11:02:23;;;;;;;2.85;0.70;;;;;;;;;;4955287;28;20391;-79
2023/03/05 11:04:50;;;;;;;4.18;0.80;;;;;;;;;;4973929;28;20039;-79
2023/03/05 11:07:15;;;;;;;4.35;0.82;;;;;;;;;;4985607;28;20830;-79
2023/03/05 11:09:41;;;;;;;5.60;1.02;;;;;;;;;;4971939;28;20047;-79
2023/03/05 11:12:14;;;;;;;5.55;1.20;;;;;;;;;;4964342;28;20121;-78
2023/03/05 11:15:02;;;;;;;4.30;1.08;;;;;;;;;;4957578;28;20198;-78
2023/03/05 11:17:37;;;;;;;3.95;0.80;;;;;;;;;;4942200;28;20038;-79
2023/03/05 11:20:33;;;;;;;3.22;0.85;;;;;;;;;;4950717;28;20053;-79
2023/03/05 11:23:08;;;;;;;4.97;0.90;;;;;;;;;;4957394;28;20038;-80
2023/03/05 11:25:34;;;;;;;2.40;0.70;;;;;;;;;;4986366;28;20561;-79
2023/03/05 11:28:01;;;;;;;3.95;1.20;;;;;;;;;;4948232;28;20045;-79
2023/03/05 11:30:32;;;;;;;2.67;0.98;;;;;;;;;;4974415;28;20031;-79
2023/03/05 11:33:11;;;;;;;4.40;0.70;;;;;;;;;;4974571;28;20491;-80
2023/03/05 11:35:39;;;;;;;6.45;1.48;;;;;;;;;;4971781;28;20038;-79
2023/03/05 11:38:06;;;;;;;3.38;1.20;;;;;;;;;;4954551;28;20097;-79
2023/03/05 11:40:34;;;;;;;4.60;1.20;;;;;;;;;;4969961;28;20035;-80
2023/03/05 11:43:01;;;;;;;4.00;1.10;;;;;;;;;;4970676;28;20528;-80
2023/03/05 11:45:28;;;;;;;5.25;1.02;;;;;;;;;;4959345;28;20050;-80
2023/03/05 11:47:57;;;;;;;5.68;1.13;;;;;;;;;;4959638;28;20035;-80
2023/03/05 11:50:24;;;;;;;2.63;0.80;;;;;;;;;;4958253;28;20058;-80
2023/03/05 11:52:57;;;;;;;2.30;0.98;;;;;;;;;;4972766;28;20440;-79
2023/03/05 11:55:41;;;;;;;3.20;1.15;;;;;;;;;;4977481;28;20039;-80
2023/03/05 11:58:25;;;;;;;4.20;1.30;;;;;;;;;;4986457;28;20044;-80
2023/03/05 12:00:51;;;;;;;6.93;1.20;;;;;;;;;;4970028;28;20102;-80
2023/03/05 12:03:23;;;;;;;2.38;0.93;;;;;;;;;;4972632;28;20403;-79
2023/03/05 12:05:56;;;;;;;4.15;1.38;;;;;;;;;;4985070;28;20031;-80
2023/03/05 12:08:27;;;;;;;3.65;1.63;;;;;;;;;;4945325;28;20099;-80
2023/03/05 12:10:53;;;;;;;3.45;1.10;;;;;;;;;;4951047;28;20549;-79
2023/03/05 12:13:34;;;;;;;3.58;1.50;;;;;;;;;;4988866;28;20030;-80
2023/03/05 12:16:09;;;;;;;5.78;1.55;;;;;;;;;;4968478;28;20035;-80
2023/03/05 12:18:40;;;;;;;3.40;0.90;;;;;;;;;;4957677;28;20045;-79
2023/03/05 12:21:24;;;;;;;6.65;1.30;;;;;;;;;;4957563;28;20552;-79
2023/03/05 12:23:57;;;;;;;7.80;1.40;;;;;;;;;;4971307;28;20042;-85
2023/03/05 12:26:58;;;;;;;2.63;1.00;;;;;;;;;;4979606;28;20046;-84
2023/03/05 12:29:42;;;;;;;3.80;0.90;;;;;;;;;;4956339;28;20039;-83
2023/03/05 12:32:27;;;;;;;3.28;0.80;;;;;;;;;;4963992;28;20035;-84
2023/03/05 12:35:21;;;;;;;3.63;1.05;;;;;;;;;;4971599;28;20082;-86
2023/03/05 12:37:50;;;;;;;3.90;0.80;;;;;;;;;;4957323;28;20107;-84
2023/03/05 12:40:24;;;;;;;2.97;0.98;;;;;;;;;;4957709;28;20046;-84
2023/03/05 12:43:15;;;;;;;3.50;1.10;;;;;;;;;;4972138;28;20527;-85
2023/03/05 12:46:01;;;;;;;4.38;1.20;;;;;;;;;;4961352;28;20118;-84
2023/03/05 12:48:47;;;;;;;6.53;1.50;;;;;;;;;;4965634;28;20575;-84
2023/03/05 12:51:13;;;;;;;3.25;1.00;;;;;;;;;;4964980;28;20027;-85
2023/03/05 12:53:38;;;;;;;2.67;1.00;;;;;;;;;;4949719;28;20047;-84
2023/03/05 12:56:18;;;;;;;5.78;1.20;;;;;;;;;;4948999;28;20039;-85
2023/03/05 12:58:48;;;;;;;6.90;1.33;;;;;;;;;;4949987;28;20062;-83
2023/03/05 13:01:28;;;;;;;3.13;0.95;;;;;;;;;;4967553;28;20051;-84
2023/03/05 13:04:00;;;;;;;4.47;1.00;;;;;;;;;;4952155;28;20046;-80
2023/03/05 13:06:28;;;;;;;3.65;1.13;;;;;;;;;;4949372;28;20043;-79
2023/03/05 13:09:03;;;;;;;3.85;1.33;;;;;;;;;;4949905;28;20039;-79
2023/03/05 13:11:30;;;;;;;5.15;1.00;;;;;;;;;;4946350;28;20066;-79
2023/03/05 13:13:56;;;;;;;3.15;1.00;;;;;;;;;;4949753;28;20046;-79
2023/03/05 13:16:27;;;;;;;4.18;1.10;;;;;;;;;;4948506;28;20198;-79
2023/03/05 13:18:57;;;;;;;2.53;1.15;;;;;;;;;;4948800;28;20058;-78
2023/03/05 13:21:29;;;;;;;6.00;1.85;;;;;;;;;;4949156;28;20152;-78
2023/03/05 13:23:59;;;;;;;3.75;1.30;;;;;;;;;;4963070;28;20038;-78
2023/03/05 13:26:29;;;;;;;4.45;1.02;;;;;;;;;;4923103;28;20050;-77
2023/03/05 13:29:12;;;;;;;5.05;1.40;;;;;;;;;;4946695;28;20049;-78
2023/03/05 13:31:48;;;;;;;2.97;0.90;;;;;;;;;;4956534;28;20039;-78
2023/03/05 13:34:20;;;;;;;2.55;0.93;;;;;;;;;;4970311;28;20066;-78
2023/03/05 13:36:51;;;;;;;4.63;0.80;;;;;;;;;;4962289;28;20053;-78
2023/03/05 13:39:20;;;;;;;6.53;1.42;;;;;;;;;;4962654;28;20038;-78
2023/03/05 13:41:56;;;;;;;3.72;0.90;;;;;;;;;;4969254;28;20050;-78
2023/03/05 13:44:21;;;;;;;4.30;1.13;;;;;;;;;;4955814;28;20378;-79
2023/03/05 13:46:47;;;;;;;4.60;1.02;;;;;;;;;;4960265;28;20039;-79
2023/03/05 13:49:31;;;;;;;1.75;0.77;;;;;;;;;;4954342;28;20045;-79
2023/03/05 13:52:00;;;;;;;3.78;1.17;;;;;;;;;;4939149;28;20038;-78
2023/03/05 13:54:26;;;;;;;2.35;0.70;;;;;;;;;;4949625;28;20110;-79
2023/03/05 13:57:01;;;;;;;3.38;0.90;;;;;;;;;;4946249;28;20574;-80
2023/03/05 13:59:32;;;;;;;3.35;0.95;;;;;;;;;;4955824;28;20764;-80
2023/03/05 14:01:59;;;;;;;2.28;0.70;;;;;;;;;;4955786;28;20051;-81
2023/03/05 14:04:29;;;;;;;5.05;0.93;;;;;;;;;;4955031;28;20098;-80
2023/03/05 14:07:03;;;;;;;3.33;0.90;;;;;;;;;;4968194;28;20050;-80
2023/03/05 14:09:41;;;;;;;2.95;1.05;;;;;;;;;;4982397;28;20061;-79
2023/03/05 14:12:29;;;;;;;4.18;1.02;;;;;;;;;;4953422;28;20469;-80
2023/03/05 14:14:55;;;;;;;2.40;0.80;;;;;;;;;;4950188;28;20105;-80
2023/03/05 14:17:26;;;;;;;2.75;0.77;;;;;;;;;;4944923;28;20114;-80
2023/03/05 14:20:05;;;;;;;2.92;0.80;;;;;;;;;;4952023;28;20441;-80
2023/03/05 14:22:34;;;;;;;2.88;0.93;;;;;;;;;;4937981;28;20400;-80
2023/03/05 14:25:00;;;;;;;2.70;1.00;;;;;;;;;;4954680;28;20039;-79
2023/03/05 14:27:26;;;;;;;3.08;0.82;;;;;;;;;;4953769;28;20399;-79
2023/03/05 14:29:51;;;;;;;3.58;0.85;;;;;;;;;;4943181;28;20522;-80
2023/03/05 14:32:19;;;;;;;4.50;1.08;;;;;;;;;;4948113;28;20075;-80
2023/03/05 14:34:51;;;;;;;3.42;1.05;;;;;;;;;;4967084;28;20472;-80
2023/03/05 14:37:38;;;;;;;5.78;0.98;;;;;;;;;;4965941;28;20434;-80
2023/03/05 14:40:27;;;;;;;2.37;0.90;;;;;;;;;;4942112;28;20050;-79
2023/03/05 14:42:58;;;;;;;2.35;0.80;;;;;;;;;;4933982;28;20624;-80
2023/03/05 14:45:29;;;;;;;3.72;0.90;;;;;;;;;;4952759;28;20114;-80
2023/03/05 14:47:55;;;;;;;3.92;0.85;;;;;;;;;;4944177;28;20058;-80
2023/03/05 14:50:24;;;;;;;2.25;0.82;;;;;;;;;;4970367;28;20044;-80
2023/03/05 14:52:52;;;;;;;2.60;0.85;;;;;;;;;;4976118;28;20042;-80
2023/03/05 14:55:21;;;;;;;3.72;0.77;;;;;;;;;;4975754;28;20042;-80